メインページ
METAR-TAF:

METAR-TAF

空港 :

サスカトゥーン, サスカチュワン州, カナダ

サスカトゥーン・ジョン・G・ディーフェンベーカー国際空港

緯度: 52-10N, 経度: 106-41W, 海抜: 501m

現時点の気象観測

当レポートは1時間34分前の21:00(UTC)に作成
西/南西の風 3kt、から北西の間で変化する
気温 27°C
湿度 39%
気圧 1019 hPa
視程: 24.1km
高度6000ftの雲はほとんどない

METAR: CYXE 262100Z 24003KT 180V310 15SM FEW060 27/12 A3009 RMK CU2 SLP198 DENSITY ALT 3200FT

時間: 16:34 (22:34 UTC)

予報

当レポートは4時間55分前の17:39(UTC)に作成
予報は26日の 18時(UTC)から 27日の 18時(UTC)まで有効
南西の風 5kt
視程: 10km
高度5000ftの雲はほとんどない
27日の 0100時(UTC)から
の風 7kt
視程: 10km
晴天

TAF: CYXE 261739Z 2618/2718 22005KT P6SM FEW050 FM270100 10007KT P6SM SKC RMK NXT FCST BY 270000Z

4,000以上の空港の気象観測と天気予報(METAR報とTAF報)

利用可能な観測所は地図上に黄色い丸と赤い丸で示す。

丸の上にカーソルを重ねると観測所名を参照できる。

次にクリックすると気象観測と天気予報を参照できる。

マップの切り替え:黒色「×」印の緑ボタンをクリックして拡大、「-」印の緑ボタンをクリックして縮小、緑色の三角印をクリックして隣りの地図に切り替え


METAR-TAF: